Time;durP1;ratioP1;P1;durP2;ratioP2;P2;SDS_P1;SDS_P2;PMS_P1;PMS_P2;Temp;Humidity;BMP_temperature;BMP_pressure;BME280_temperature;BME280_humidity;BME280_pressure;Samples;Min_cycle;Max_cycle;Signal;HPM_P1;HPM_P2
2022/08/19 00:00:21;;;;;;;23.95;22.45;;;;;;;20.50;77.39;98256.84;4124124;28;20697;-58
2022/08/19 00:02:23;;;;;;;24.42;22.85;;;;;;;20.51;77.43;98249.34;4136779;28;21290;-59
2022/08/19 00:04:29;;;;;;;22.42;21.08;;;;;;;20.50;77.14;98258.84;4139741;28;20621;-59
2022/08/19 00:06:31;;;;;;;23.00;21.27;;;;;;;20.52;77.01;98256.53;4138892;28;20217;-59
2022/08/19 00:08:32;;;;;;;23.92;22.23;;;;;;;20.50;77.29;98258.84;4135746;28;20941;-60
2022/08/19 00:10:34;;;;;;;23.15;21.50;;;;;;;20.49;77.42;98257.16;4140487;28;20649;-58
2022/08/19 00:12:37;;;;;;;22.80;21.33;;;;;;;20.49;77.31;98251.59;4138424;28;20209;-59
2022/08/19 00:14:47;;;;;;;21.92;20.45;;;;;;;20.46;77.33;98252.25;4136785;28;20240;-59
2022/08/19 00:16:51;;;;;;;24.45;22.77;;;;;;;20.47;77.25;98242.78;4153596;28;20248;-59
2022/08/19 00:18:54;;;;;;;22.13;20.77;;;;;;;20.45;77.61;98245.88;4140022;28;20254;-60
2022/08/19 00:20:56;;;;;;;22.40;20.90;;;;;;;20.42;78.34;98234.56;4139345;28;20209;-59
2022/08/19 00:22:58;;;;;;;23.20;21.80;;;;;;;20.53;78.10;98233.16;4122554;28;20265;-59
2022/08/19 00:25:00;;;;;;;23.10;21.58;;;;;;;20.43;78.71;98230.66;4123050;28;20259;-59
2022/08/19 00:27:02;;;;;;;25.08;23.35;;;;;;;20.47;78.56;98234.44;4138542;28;20363;-59
2022/08/19 00:29:24;;;;;;;24.58;22.98;;;;;;;20.30;78.79;98231.59;4140416;28;20677;-59
2022/08/19 00:31:27;;;;;;;24.67;22.90;;;;;;;20.29;78.71;98241.03;4124431;28;20312;-59
2022/08/19 00:33:32;;;;;;;23.77;22.33;;;;;;;20.32;78.83;98248.75;4138947;28;20240;-59
2022/08/19 00:35:34;;;;;;;24.60;22.80;;;;;;;20.25;78.47;98243.63;4137455;28;20300;-59
2022/08/19 00:37:35;;;;;;;24.23;22.42;;;;;;;20.23;78.65;98247.88;4138395;28;20681;-58
2022/08/19 00:39:37;;;;;;;25.08;23.23;;;;;;;20.16;78.17;98247.50;4123196;28;20664;-59
2022/08/19 00:41:39;;;;;;;22.98;21.55;;;;;;;20.14;78.01;98244.25;4140411;28;20263;-59
2022/08/19 00:43:41;;;;;;;23.95;22.45;;;;;;;20.05;78.50;98258.06;4140912;28;20627;-59
2022/08/19 00:45:43;;;;;;;24.45;22.95;;;;;;;19.89;79.34;98253.19;4138972;28;20205;-59
2022/08/19 00:47:45;;;;;;;24.70;23.13;;;;;;;19.85;79.63;98257.75;4136201;28;20705;-58
2022/08/19 00:49:53;;;;;;;27.00;25.20;;;;;;;19.78;79.80;98246.28;4154588;28;20723;-59
2022/08/19 00:52:09;;;;;;;23.45;22.02;;;;;;;19.83;79.81;98248.91;4138874;28;20227;-58
2022/08/19 00:54:11;;;;;;;23.35;21.65;;;;;;;19.91;79.27;98239.84;4138444;28;20738;-58
2022/08/19 00:56:13;;;;;;;25.63;23.58;;;;;;;19.99;79.21;98236.28;4135580;28;20315;-59
2022/08/19 00:58:17;;;;;;;23.20;21.80;;;;;;;20.05;78.69;98235.00;4136069;28;20239;-59
2022/08/19 01:00:19;;;;;;;25.15;23.58;;;;;;;20.08;78.89;98234.41;4131552;28;20287;-59
2022/08/19 01:02:23;;;;;;;25.13;23.65;;;;;;;20.09;78.45;98231.31;4137965;28;20244;-59
2022/08/19 01:04:25;;;;;;;23.50;21.98;;;;;;;20.13;78.38;98237.03;4134596;28;20284;-59
2022/08/19 01:06:26;;;;;;;24.25;22.75;;;;;;;20.15;78.39;98230.03;4136269;28;20295;-59
2022/08/19 01:08:28;;;;;;;23.95;22.55;;;;;;;20.16;78.40;98230.84;4137557;28;20216;-59
2022/08/19 01:10:36;;;;;;;21.63;20.25;;;;;;;20.16;78.22;98233.63;4123747;28;20237;-59
2022/08/19 01:12:38;;;;;;;24.10;22.33;;;;;;;20.16;78.45;98228.06;4153786;28;20219;-59
2022/08/19 01:14:40;;;;;;;24.52;23.02;;;;;;;20.16;78.58;98239.19;4137243;28;20351;-60
2022/08/19 01:16:42;;;;;;;25.02;23.40;;;;;;;20.19;78.82;98224.66;4139254;28;20232;-59
2022/08/19 01:18:44;;;;;;;22.83;21.23;;;;;;;20.16;78.65;98223.34;4126608;28;20316;-60
2022/08/19 01:20:47;;;;;;;24.55;22.95;;;;;;;20.17;78.88;98215.84;4141341;28;20325;-60
2022/08/19 01:22:58;;;;;;;23.52;22.13;;;;;;;20.16;78.88;98215.00;4156082;28;20291;-60
2022/08/19 01:25:01;;;;;;;24.13;22.73;;;;;;;20.15;79.06;98218.09;4133571;28;21986;-59
2022/08/19 01:27:07;;;;;;;23.58;21.80;;;;;;;20.11;79.45;98211.53;4136818;28;20314;-59
2022/08/19 01:29:11;;;;;;;24.67;23.08;;;;;;;20.07;79.74;98216.91;4126764;28;20205;-60
2022/08/19 01:31:19;;;;;;;23.55;21.95;;;;;;;20.12;79.56;98218.75;4126561;28;20281;-59
2022/08/19 01:33:30;;;;;;;23.08;21.67;;;;;;;20.08;79.53;98223.28;4126184;28;20574;-59
2022/08/19 01:35:32;;;;;;;25.38;23.67;;;;;;;19.97;79.54;98238.56;4141711;28;20580;-59
2022/08/19 01:37:57;;;;;;;24.70;23.10;;;;;;;20.09;79.20;98227.69;4123370;28;20660;-59
2022/08/19 01:40:00;;;;;;;24.10;22.20;;;;;;;19.99;79.15;98236.28;4132176;28;20673;-59
2022/08/19 01:42:02;;;;;;;24.45;22.95;;;;;;;20.00;78.85;98235.97;4153948;28;20212;-59
2022/08/19 01:44:06;;;;;;;25.08;23.45;;;;;;;20.00;78.95;98226.81;4144890;28;20241;-59
2022/08/19 01:46:19;;;;;;;22.65;21.30;;;;;;;19.99;79.09;98228.75;4127618;28;20229;-59
2022/08/19 01:48:25;;;;;;;23.55;22.02;;;;;;;20.02;78.89;98222.56;4128313;28;20222;-59
2022/08/19 01:50:27;;;;;;;24.73;23.00;;;;;;;20.03;78.91;98226.16;4144353;28;20236;-59
2022/08/19 01:52:29;;;;;;;24.40;22.83;;;;;;;20.02;78.98;98219.78;4125977;28;20640;-59
2022/08/19 01:54:31;;;;;;;23.90;22.40;;;;;;;20.02;78.94;98218.97;4141663;28;20216;-59
2022/08/19 01:56:32;;;;;;;24.08;22.48;;;;;;;20.01;78.92;98220.94;4135722;28;20254;-60
2022/08/19 01:58:41;;;;;;;22.48;21.10;;;;;;;20.00;79.14;98226.81;4141250;28;20208;-59
2022/08/19 02:00:43;;;;;;;23.75;22.05;;;;;;;20.01;78.90;98228.44;4125811;28;20206;-59
2022/08/19 02:02:45;;;;;;;23.33;21.92;;;;;;;19.99;78.87;98239.06;4143982;28;20301;-59
2022/08/19 02:04:47;;;;;;;23.52;22.15;;;;;;;19.96;78.98;98223.84;4140487;28;20557;-59
2022/08/19 02:06:49;;;;;;;23.73;22.20;;;;;;;19.95;78.80;98241.66;4147046;28;20233;-60
2022/08/19 02:08:51;;;;;;;21.63;20.38;;;;;;;19.97;78.75;98249.69;4141742;28;20212;-59
2022/08/19 02:10:57;;;;;;;23.05;21.67;;;;;;;19.94;78.67;98245.56;4119598;28;20230;-59
2022/08/19 02:12:59;;;;;;;24.65;22.85;;;;;;;19.88;79.03;98244.06;4141988;28;20308;-58
2022/08/19 02:15:02;;;;;;;23.25;21.58;;;;;;;19.88;79.37;98241.28;4139938;28;20243;-59
2022/08/19 02:17:04;;;;;;;23.27;21.88;;;;;;;19.87;79.36;98255.47;4142554;28;20224;-59
2022/08/19 02:19:06;;;;;;;22.75;20.95;;;;;;;19.91;79.37;98251.75;4123674;28;20215;-59
2022/08/19 02:21:07;;;;;;;22.95;21.45;;;;;;;19.64;80.74;98262.19;4138098;28;20242;-58
2022/08/19 02:23:10;;;;;;;24.70;23.13;;;;;;;19.61;80.85;98258.06;4144587;28;20244;-59
2022/08/19 02:25:16;;;;;;;22.80;21.42;;;;;;;19.62;80.90;98256.09;4121143;28;20290;-59
2022/08/19 02:27:18;;;;;;;24.02;22.55;;;;;;;19.65;80.55;98247.16;4127537;28;20332;-59
2022/08/19 02:29:20;;;;;;;24.23;22.60;;;;;;;19.63;80.68;98255.78;4157869;28;20640;-59
2022/08/19 02:31:23;;;;;;;22.73;21.33;;;;;;;19.64;80.45;98257.44;4126636;28;20297;-59
2022/08/19 02:33:26;;;;;;;22.00;20.70;;;;;;;19.67;80.54;98255.97;4157036;28;20219;-59
2022/08/19 02:35:28;;;;;;;22.67;20.73;;;;;;;19.75;80.13;98258.00;4144215;28;20735;-59
2022/08/19 02:39:50;;;;;;;22.20;20.90;;;;;;;19.72;80.41;98255.88;4145699;28;20661;-59
2022/08/19 02:41:52;;;;;;;22.30;20.95;;;;;;;19.74;80.26;98256.34;4126834;28;20213;-58
2022/08/19 02:43:55;;;;;;;23.10;21.70;;;;;;;19.71;80.13;98259.78;4136763;28;20233;-59
2022/08/19 02:46:20;;;;;;;22.40;21.00;;;;;;;19.71;80.23;98257.00;4128317;28;20248;-58
2022/08/19 02:48:23;;;;;;;22.13;20.83;;;;;;;19.66;80.58;98254.34;4139239;28;20209;-58
2022/08/19 02:50:25;;;;;;;20.30;19.02;;;;;;;19.67;80.30;98255.97;4141920;28;20296;-59
2022/08/19 02:52:27;;;;;;;21.13;19.92;;;;;;;19.62;80.26;98259.72;4143482;28;20236;-59
2022/08/19 02:54:29;;;;;;;20.50;19.27;;;;;;;19.59;80.26;98260.31;4144202;28;20288;-59
2022/08/19 02:56:33;;;;;;;22.17;20.88;;;;;;;19.59;80.18;98270.63;4128225;28;20312;-59
2022/08/19 02:58:35;;;;;;;21.30;19.90;;;;;;;19.57;80.41;98264.56;4143523;28;20244;-58
2022/08/19 03:00:49;;;;;;;20.52;19.33;;;;;;;19.55;80.11;98270.44;4142784;28;20232;-58
2022/08/19 03:02:50;;;;;;;21.10;19.70;;;;;;;19.56;80.15;98268.44;4137465;28;20232;-57
2022/08/19 03:04:52;;;;;;;22.05;20.25;;;;;;;19.52;80.45;98270.22;4143892;28;20218;-59
2022/08/19 03:06:53;;;;;;;20.05;18.60;;;;;;;19.52;80.40;98264.69;4143740;28;20260;-59
2022/08/19 03:08:59;;;;;;;21.92;20.27;;;;;;;19.47;80.34;98256.47;4139442;28;20581;-59
2022/08/19 03:11:01;;;;;;;20.05;18.75;;;;;;;19.45;80.44;98255.97;4128066;28;20229;-59
2022/08/19 03:13:03;;;;;;;20.83;19.63;;;;;;;19.44;80.22;98255.13;4125780;28;20206;-60
2022/08/19 03:15:07;;;;;;;20.45;19.25;;;;;;;19.45;79.92;98258.75;4147354;28;20240;-59
2022/08/19 03:17:09;;;;;;;19.92;18.73;;;;;;;19.46;80.03;98263.97;4146147;28;20276;-60
2022/08/19 03:19:10;;;;;;;19.20;18.05;;;;;;;19.45;79.97;98259.53;4126441;28;20317;-58
2022/08/19 03:21:38;;;;;;;19.85;18.50;;;;;;;19.45;80.02;98254.00;4145077;28;20233;-59
2022/08/19 03:23:40;;;;;;;21.98;17.58;;;;;;;19.45;79.96;98258.75;4138414;28;20620;-58
2022/08/19 03:25:44;;;;;;;19.05;17.65;;;;;;;19.45;80.02;98254.00;4143523;28;20233;-59
2022/08/19 03:27:48;;;;;;;18.80;17.52;;;;;;;19.43;79.95;98247.94;4138843;28;20248;-59
2022/08/19 03:29:51;;;;;;;18.92;17.73;;;;;;;19.42;80.32;98251.03;4144816;28;22451;-58
2022/08/19 03:31:52;;;;;;;19.00;17.90;;;;;;;19.41;80.30;98250.22;4129953;28;20289;-59
2022/08/19 03:33:54;;;;;;;20.15;19.00;;;;;;;19.40;80.54;98258.84;4142435;28;20240;-58
2022/08/19 03:36:17;;;;;;;19.88;18.60;;;;;;;19.40;80.51;98258.84;4138155;28;20228;-59
2022/08/19 03:38:19;;;;;;;19.45;18.35;;;;;;;19.37;80.63;98259.50;4140295;28;20304;-60
2022/08/19 03:40:21;;;;;;;19.73;18.52;;;;;;;19.32;80.77;98267.94;4139755;28;20288;-59
2022/08/19 03:42:23;;;;;;;21.10;19.55;;;;;;;19.27;80.88;98274.41;4141465;28;20251;-59
2022/08/19 03:44:36;;;;;;;18.95;17.85;;;;;;;19.23;80.90;98283.66;4139520;28;20259;-60
2022/08/19 03:46:37;;;;;;;18.85;17.75;;;;;;;19.20;80.65;98284.28;4138113;28;20248;-60
2022/08/19 03:48:44;;;;;;;20.13;18.42;;;;;;;19.18;80.76;98286.53;4140269;28;20565;-59
2022/08/19 03:50:46;;;;;;;20.05;18.65;;;;;;;19.13;80.85;98289.41;4138466;28;20236;-59
2022/08/19 03:52:51;;;;;;;20.30;19.08;;;;;;;19.14;81.13;98283.56;4138681;28;20225;-59
2022/08/19 03:54:53;;;;;;;17.08;16.00;;;;;;;19.12;81.04;98287.78;4133398;28;20205;-60
2022/08/19 03:56:55;;;;;;;19.55;17.95;;;;;;;19.07;81.18;98285.94;4132086;28;20324;-59
2022/08/19 03:58:59;;;;;;;19.95;18.75;;;;;;;19.09;81.28;98282.81;4119801;28;20281;-58
2022/08/19 04:01:01;;;;;;;17.55;16.20;;;;;;;19.07;81.12;98285.09;4130072;28;20230;-60
2022/08/19 04:03:02;;;;;;;18.98;17.42;;;;;;;19.07;81.09;98285.94;4141108;28;20213;-59
2022/08/19 04:05:05;;;;;;;18.70;17.08;;;;;;;19.07;81.30;98290.66;4136934;28;20243;-57
2022/08/19 04:07:08;;;;;;;18.65;17.23;;;;;;;19.04;81.17;98285.72;4142218;28;20315;-59
2022/08/19 04:09:11;;;;;;;18.17;17.10;;;;;;;19.02;81.49;98282.44;4154962;28;20343;-59
2022/08/19 04:11:15;;;;;;;18.13;16.92;;;;;;;19.02;81.42;98282.44;4137897;28;20304;-59
2022/08/19 04:13:18;;;;;;;19.27;17.85;;;;;;;18.98;81.49;98278.66;4141608;28;20241;-59
2022/08/19 04:15:20;;;;;;;20.23;18.55;;;;;;;18.99;81.49;98278.31;4151874;28;20299;-59
2022/08/19 04:17:22;;;;;;;18.83;17.67;;;;;;;18.93;81.68;98278.75;4151138;28;20240;-60
2022/08/19 04:19:24;;;;;;;17.17;16.17;;;;;;;18.91;81.83;98283.78;4136695;28;20296;-59
2022/08/19 04:21:26;;;;;;;18.02;16.85;;;;;;;18.86;81.86;98283.88;4136770;28;20217;-58
2022/08/19 04:23:28;;;;;;;16.73;15.52;;;;;;;18.84;82.03;98291.72;4140176;28;20266;-59
2022/08/19 04:25:38;;;;;;;18.30;17.15;;;;;;;18.81;81.71;98287.59;4136420;28;20606;-59
2022/08/19 04:27:41;;;;;;;18.17;17.08;;;;;;;18.82;81.71;98277.31;4133609;28;20760;-59
2022/08/19 04:29:43;;;;;;;20.23;18.27;;;;;;;18.85;81.58;98271.16;4121525;28;20809;-59
2022/08/19 04:31:45;;;;;;;16.80;15.70;;;;;;;18.84;81.42;98277.84;4138307;28;20206;-59
2022/08/19 04:33:47;;;;;;;15.70;14.80;;;;;;;18.85;81.71;98265.63;4120229;28;20268;-59
2022/08/19 04:35:50;;;;;;;15.95;14.98;;;;;;;18.85;81.51;98268.38;4135367;28;20221;-59
2022/08/19 04:37:52;;;;;;;17.00;15.80;;;;;;;18.81;81.63;98270.97;4141671;28;20696;-59
2022/08/19 04:44:35;;;;;;;16.70;15.60;;;;;;;18.68;81.71;98276.50;4140382;28;20834;-58
2022/08/19 04:46:48;;;;;;;17.45;16.25;;;;;;;18.70;81.91;98283.38;4137402;28;20275;-58
2022/08/19 04:48:53;;;;;;;16.75;15.25;;;;;;;18.67;81.73;98281.22;4122906;28;20638;-58
2022/08/19 04:50:58;;;;;;;17.60;16.13;;;;;;;18.68;81.96;98287.59;4121487;28;20296;-58
2022/08/19 04:53:00;;;;;;;17.65;16.33;;;;;;;18.71;81.88;98282.25;4136854;28;20332;-58
2022/08/19 04:55:02;;;;;;;16.38;15.25;;;;;;;18.72;81.82;98283.06;4138302;28;20673;-59
2022/08/19 04:57:06;;;;;;;17.80;16.73;;;;;;;18.73;81.56;98285.53;4139317;28;20321;-58
2022/08/19 04:59:08;;;;;;;15.80;14.80;;;;;;;18.72;81.60;98277.53;4123901;28;20586;-58
2022/08/19 05:01:17;;;;;;;18.35;17.02;;;;;;;18.73;81.76;98276.41;4142917;28;20696;-59
2022/08/19 05:03:19;;;;;;;17.63;16.45;;;;;;;18.71;81.84;98275.91;4121986;28;20488;-58
2022/08/19 05:05:21;;;;;;;17.17;15.98;;;;;;;18.68;82.32;98271.78;4140568;28;20208;-58
2022/08/19 05:07:22;;;;;;;16.15;15.15;;;;;;;18.66;82.40;98273.22;4142204;28;20232;-59
2022/08/19 05:09:24;;;;;;;17.05;16.05;;;;;;;18.64;82.37;98275.47;4142838;28;20700;-58
2022/08/19 05:11:29;;;;;;;16.38;15.48;;;;;;;18.65;82.28;98277.13;4143852;28;20209;-57
2022/08/19 05:13:31;;;;;;;15.65;14.48;;;;;;;18.66;82.31;98281.53;4153060;28;20312;-58
2022/08/19 05:15:32;;;;;;;17.42;15.95;;;;;;;18.68;82.33;98293.97;4153165;28;21827;-58
2022/08/19 05:17:34;;;;;;;15.93;14.82;;;;;;;18.74;82.19;98289.97;4138095;28;20701;-59
2022/08/19 05:22:45;;;;;;;17.52;16.15;;;;;;;18.79;82.12;98287.06;4137095;28;20652;-59
2022/08/19 05:24:23;;;;;;;15.63;14.63;;;;;;;18.92;82.05;98291.78;4136358;28;20624;-58
2022/08/19 05:26:25;;;;;;;17.42;16.33;;;;;;;18.98;81.95;98298.06;4122217;28;20684;-59
2022/08/19 05:28:27;;;;;;;17.52;16.48;;;;;;;18.92;82.21;98299.31;4135629;28;20285;-58
2022/08/19 05:30:32;;;;;;;18.02;16.98;;;;;;;18.95;82.10;98304.22;4122988;28;20221;-58
2022/08/19 05:32:49;;;;;;;19.13;17.70;;;;;;;18.92;82.56;98307.63;4136789;28;20216;-59
2022/08/19 05:34:54;;;;;;;18.60;16.95;;;;;;;19.01;82.27;98308.53;4140319;28;20969;-59
2022/08/19 05:36:57;;;;;;;18.80;17.23;;;;;;;19.10;82.33;98317.75;4142245;28;20221;-59
2022/08/19 05:38:59;;;;;;;18.13;16.92;;;;;;;19.12;81.97;98302.44;4141089;28;20249;-58
2022/08/19 05:41:11;;;;;;;18.13;16.58;;;;;;;19.22;81.98;98298.66;4158491;28;20228;-58
2022/08/19 05:43:16;;;;;;;17.98;16.88;;;;;;;19.29;81.88;98304.59;4124730;28;20218;-58
2022/08/19 05:45:18;;;;;;;17.35;16.27;;;;;;;19.30;81.95;98306.25;4122994;28;20674;-59
2022/08/19 05:47:19;;;;;;;18.65;17.45;;;;;;;19.37;81.93;98306.69;4141347;28;20221;-59
2022/08/19 05:49:22;;;;;;;17.90;16.65;;;;;;;19.42;82.16;98303.75;4136301;28;20256;-58
2022/08/19 05:51:24;;;;;;;19.23;17.92;;;;;;;19.52;81.76;98315.44;4137697;28;20646;-59
2022/08/19 05:53:29;;;;;;;18.65;17.13;;;;;;;19.56;82.38;98315.66;4130389;28;20218;-58
2022/08/19 05:55:31;;;;;;;17.67;16.52;;;;;;;19.59;81.57;98326.16;4140230;28;20304;-59
2022/08/19 05:57:33;;;;;;;18.35;16.98;;;;;;;19.60;81.07;98336.13;4130497;28;20229;-58
2022/08/19 05:59:38;;;;;;;18.13;17.05;;;;;;;19.50;80.90;98339.94;4140627;28;20339;-58
2022/08/19 06:01:41;;;;;;;20.08;18.52;;;;;;;19.57;80.17;98345.09;4140371;28;20676;-59
2022/08/19 06:03:44;;;;;;;16.85;15.65;;;;;;;19.70;79.89;98344.19;4138337;28;20209;-59
2022/08/19 06:05:45;;;;;;;16.85;15.65;;;;;;;19.83;79.48;98348.88;4133956;28;20206;-59
2022/08/19 06:07:53;;;;;;;16.42;15.40;;;;;;;19.98;79.23;98346.56;4154895;28;20213;-59
2022/08/19 06:09:55;;;;;;;14.63;13.73;;;;;;;19.99;78.45;98359.31;4141183;28;20227;-59
2022/08/19 06:12:02;;;;;;;16.30;14.93;;;;;;;20.15;78.24;98360.66;4139609;28;20209;-59
2022/08/19 06:14:08;;;;;;;15.85;14.75;;;;;;;20.19;77.49;98367.19;4143966;28;20596;-60
2022/08/19 06:16:22;;;;;;;13.07;12.18;;;;;;;20.23;77.01;98370.16;4126654;28;20896;-59
2022/08/19 06:18:24;;;;;;;13.73;12.73;;;;;;;20.41;77.13;98374.72;4137673;28;20233;-59
2022/08/19 06:20:25;;;;;;;16.33;14.68;;;;;;;20.48;77.06;98378.69;4137954;28;20210;-59
2022/08/19 06:22:51;;;;;;;14.20;12.75;;;;;;;20.61;75.34;98380.59;4134814;28;20458;-63
2022/08/19 06:24:54;;;;;;;12.68;11.80;;;;;;;20.58;75.08;98378.41;4144121;28;20205;-62
2022/08/19 06:26:57;;;;;;;14.15;13.00;;;;;;;20.59;75.19;98387.59;4137846;28;20580;-62
2022/08/19 06:29:05;;;;;;;12.63;11.70;;;;;;;20.67;75.51;98386.81;4142967;28;20252;-62
2022/08/19 06:31:08;;;;;;;16.38;11.07;;;;;;;20.74;75.20;98389.97;4159982;28;20244;-62
2022/08/19 06:33:10;;;;;;;12.10;11.20;;;;;;;20.80;75.08;98383.13;4130986;28;20213;-62
2022/08/19 06:35:14;;;;;;;10.63;9.80;;;;;;;20.82;75.17;98389.19;4147364;28;20213;-62
2022/08/19 06:37:16;;;;;;;13.40;12.27;;;;;;;20.89;75.45;98384.84;4141601;28;20626;-62
2022/08/19 06:39:21;;;;;;;13.18;12.27;;;;;;;20.90;75.27;98380.13;4147741;28;20322;-62
2022/08/19 06:41:24;;;;;;;11.40;10.57;;;;;;;20.94;74.57;98384.72;4142925;28;20216;-62
2022/08/19 06:43:26;;;;;;;13.95;12.93;;;;;;;20.96;74.21;98384.38;4124577;28;20297;-62
2022/08/19 06:45:30;;;;;;;12.68;11.52;;;;;;;20.99;74.67;98389.31;4141928;28;20209;-62
2022/08/19 06:47:39;;;;;;;12.10;11.30;;;;;;;21.02;75.24;98388.66;4127615;28;21066;-62
2022/08/19 06:49:41;;;;;;;11.18;10.15;;;;;;;21.08;74.65;98381.81;4138777;28;20209;-62
2022/08/19 06:51:47;;;;;;;14.20;13.02;;;;;;;21.15;74.15;98382.19;4130844;28;20208;-62
2022/08/19 06:53:51;;;;;;;12.38;11.48;;;;;;;21.23;74.29;98384.19;4125255;28;20202;-62
2022/08/19 06:55:59;;;;;;;11.63;10.93;;;;;;;21.39;74.06;98386.19;4143902;28;20349;-62
2022/08/19 06:58:03;;;;;;;13.25;12.00;;;;;;;21.51;73.78;98386.41;4138751;28;20212;-62
2022/08/19 07:00:10;;;;;;;12.95;11.93;;;;;;;21.66;73.53;98387.91;4145121;28;20217;-62
2022/08/19 07:02:13;;;;;;;11.75;10.93;;;;;;;21.73;72.82;98385.50;4124966;28;20780;-62
2022/08/19 07:04:17;;;;;;;11.38;10.50;;;;;;;21.75;72.53;98386.81;4148398;28;20260;-62
2022/08/19 07:06:20;;;;;;;12.50;11.50;;;;;;;21.71;71.98;98379.44;4129950;28;20305;-62
2022/08/19 07:08:42;;;;;;;14.40;13.27;;;;;;;21.58;72.18;98385.94;4133106;28;20258;-62
2022/08/19 07:10:45;;;;;;;14.95;13.95;;;;;;;21.29;73.09;98388.44;4144981;28;20288;-61
2022/08/19 07:12:48;;;;;;;11.60;10.90;;;;;;;21.55;73.22;98381.81;4141035;28;20237;-62
2022/08/19 07:14:50;;;;;;;12.95;12.10;;;;;;;21.78;72.96;98385.34;4139429;28;20204;-63
2022/08/19 07:16:57;;;;;;;13.07;11.70;;;;;;;21.84;72.89;98384.06;4141414;28;20257;-62
2022/08/19 07:18:59;;;;;;;13.57;12.32;;;;;;;21.99;72.44;98380.78;4142629;28;20723;-62
2022/08/19 07:21:20;;;;;;;13.43;12.43;;;;;;;22.15;72.25;98379.13;4124119;28;20201;-62
2022/08/19 07:23:23;;;;;;;15.00;13.68;;;;;;;22.26;72.13;98388.81;4130652;28;20668;-62
2022/08/19 07:25:28;;;;;;;14.85;13.90;;;;;;;22.21;71.71;98381.44;4148199;28;20213;-62
2022/08/19 07:27:34;;;;;;;11.98;11.18;;;;;;;22.37;71.92;98378.97;4146784;28;20224;-62
2022/08/19 07:29:36;;;;;;;12.48;11.57;;;;;;;22.48;71.55;98386.69;4144061;28;20204;-62
2022/08/19 07:31:39;;;;;;;13.43;12.32;;;;;;;22.57;71.38;98390.28;4143548;28;20689;-62
2022/08/19 07:33:45;;;;;;;12.20;10.98;;;;;;;22.79;70.90;98392.88;4155466;28;20667;-62
2022/08/19 07:35:48;;;;;;;12.00;11.18;;;;;;;23.00;70.02;98395.75;4134239;28;20312;-62
2022/08/19 07:37:50;;;;;;;11.25;10.45;;;;;;;22.96;69.56;98401.19;4135141;28;20232;-62
2022/08/19 07:39:52;;;;;;;11.07;10.38;;;;;;;22.91;69.48;98397.78;4132159;28;20316;-62
2022/08/19 07:41:55;;;;;;;11.57;10.45;;;;;;;23.02;69.19;98394.28;4133779;28;20209;-62
2022/08/19 07:44:08;;;;;;;12.40;11.50;;;;;;;22.97;67.95;98390.84;4134831;28;20243;-63
2022/08/19 07:46:12;;;;;;;13.13;12.02;;;;;;;23.10;68.71;98392.63;4127885;28;20240;-62
2022/08/19 07:48:14;;;;;;;11.88;11.07;;;;;;;23.32;67.77;98395.19;4143497;28;20205;-63
2022/08/19 07:50:19;;;;;;;10.63;10.00;;;;;;;23.69;67.73;98385.97;4141001;28;20711;-61
2022/08/19 07:52:22;;;;;;;10.32;9.65;;;;;;;24.00;66.72;98390.84;4138362;28;20220;-62
2022/08/19 07:54:26;;;;;;;9.50;8.80;;;;;;;24.20;65.90;98395.63;4125339;28;20205;-61
2022/08/19 07:56:28;;;;;;;11.77;10.77;;;;;;;24.03;65.62;98392.97;4141256;28;20906;-60
2022/08/19 07:58:32;;;;;;;11.07;10.27;;;;;;;24.49;65.65;98398.34;4140783;28;20236;-61
2022/08/19 08:00:35;;;;;;;8.60;8.00;;;;;;;24.41;64.95;98393.63;4136441;28;20216;-61
2022/08/19 08:02:37;;;;;;;10.48;9.88;;;;;;;24.56;64.10;98395.84;4140037;28;20209;-61
2022/08/19 08:09:36;;;;;;;9.93;9.23;;;;;;;24.79;64.57;98399.09;4142738;28;20240;-60
2022/08/19 08:11:41;;;;;;;10.50;9.52;;;;;;;25.04;63.23;98401.59;4125524;28;20210;-61
2022/08/19 08:13:43;;;;;;;10.25;9.13;;;;;;;25.22;63.66;98397.44;4122608;28;20231;-61
2022/08/19 08:15:45;;;;;;;8.23;7.63;;;;;;;25.33;62.86;98398.63;4140323;28;20204;-61
2022/08/19 08:17:47;;;;;;;10.75;10.00;;;;;;;25.45;62.18;98395.84;4120724;28;20299;-60
2022/08/19 08:19:52;;;;;;;9.73;9.02;;;;;;;25.69;61.06;98401.47;4140085;28;20256;-61
2022/08/19 08:21:56;;;;;;;9.35;8.75;;;;;;;25.67;61.15;98395.38;4137914;28;20299;-61
2022/08/19 08:23:58;;;;;;;12.27;11.27;;;;;;;25.62;60.42;98400.41;4139721;28;21116;-62
2022/08/19 08:26:01;;;;;;;12.18;10.85;;;;;;;25.53;61.22;98397.72;4135922;28;20212;-62
2022/08/19 08:28:04;;;;;;;11.68;10.68;;;;;;;25.68;60.98;98399.81;4136682;28;20244;-62
2022/08/19 08:30:11;;;;;;;13.50;12.57;;;;;;;25.56;60.68;98407.41;4139013;28;20232;-62
2022/08/19 08:32:14;;;;;;;13.98;13.07;;;;;;;25.52;60.58;98401.69;4119266;28;20202;-62
2022/08/19 08:34:16;;;;;;;13.88;12.88;;;;;;;25.55;60.61;98403.81;4137080;28;20626;-62
2022/08/19 08:36:18;;;;;;;14.05;12.73;;;;;;;25.51;60.68;98400.06;4140244;28;20614;-61
2022/08/19 08:38:19;;;;;;;13.65;12.65;;;;;;;25.33;61.11;98407.03;4153890;28;20294;-62
2022/08/19 08:40:22;;;;;;;13.73;12.82;;;;;;;25.49;60.19;98402.41;4142390;28;20316;-62
2022/08/19 08:42:30;;;;;;;13.18;12.05;;;;;;;25.52;60.53;98401.69;4138974;28;20979;-61
2022/08/19 08:44:49;;;;;;;13.52;12.63;;;;;;;25.37;60.43;98399.56;4119941;28;20228;-61
2022/08/19 08:46:59;;;;;;;11.95;11.00;;;;;;;25.52;60.61;98400.88;4142011;28;20264;-61
2022/08/19 08:49:16;;;;;;;11.70;10.93;;;;;;;25.65;59.69;98394.91;4174419;23;20658;-88
2022/08/19 08:51:42;;;;;;;12.50;11.52;;;;;;;25.55;59.05;98401.00;4135339;28;20236;-86
2022/08/19 08:53:50;;;;;;;11.57;10.77;;;;;;;25.23;58.82;98404.69;4122943;28;20228;-85
2022/08/19 08:55:56;;;;;;;12.20;10.23;;;;;;;25.29;58.85;98408.91;4134106;28;20248;-85
2022/08/19 08:58:15;;;;;;;10.07;9.20;;;;;;;25.75;59.07;98404.84;4115794;28;20281;-87
2022/08/19 09:00:29;;;;;;;10.43;9.45;;;;;;;25.94;58.44;98403.09;4114586;28;20229;-85
2022/08/19 09:02:31;;;;;;;9.52;8.55;;;;;;;26.13;57.94;98400.47;4138832;28;20292;-84
2022/08/19 09:04:35;;;;;;;8.90;8.00;;;;;;;26.51;56.52;98398.03;4121235;28;20202;-86
2022/08/19 09:06:47;;;;;;;11.98;6.22;;;;;;;26.51;54.81;98406.47;4133805;28;20208;-85
2022/08/19 09:09:12;;;;;;;8.13;7.63;;;;;;;26.55;55.06;98407.44;4135750;28;20250;-85
2022/08/19 09:11:42;;;;;;;5.95;5.53;;;;;;;26.41;54.03;98409.78;4137066;28;20249;-87
2022/08/19 09:14:11;;;;;;;6.55;5.55;;;;;;;26.38;52.84;98416.09;4134806;28;20229;-86
2022/08/19 09:16:34;;;;;;;6.03;5.63;;;;;;;26.45;53.19;98419.13;4134579;28;20206;-88
2022/08/19 09:18:58;;;;;;;4.45;4.15;;;;;;;26.48;53.18;98407.19;4134998;28;20217;-86
2022/08/19 09:21:08;;;;;;;4.85;4.38;;;;;;;26.50;52.45;98416.06;4133402;28;20226;-85
2022/08/19 09:23:10;;;;;;;5.43;4.93;;;;;;;26.42;52.21;98411.41;4134005;28;20213;-86
2022/08/19 09:25:15;;;;;;;4.55;4.25;;;;;;;26.26;53.46;98410.50;4121428;28;20205;-86
2022/08/19 09:27:20;;;;;;;4.57;4.28;;;;;;;26.09;53.81;98405.19;4134653;28;20206;-87
2022/08/19 09:29:42;;;;;;;8.02;3.78;;;;;;;26.03;53.02;98412.22;4138617;28;20564;-88
2022/08/19 09:31:43;;;;;;;4.93;4.43;;;;;;;25.83;53.94;98413.13;4113614;28;20669;-86
2022/08/19 09:33:49;;;;;;;4.32;4.03;;;;;;;25.70;54.43;98414.31;4128922;28;20210;-86
2022/08/19 09:36:04;;;;;;;4.97;4.60;;;;;;;25.63;55.18;98408.47;4124224;28;20209;-87
2022/08/19 09:38:09;;;;;;;5.68;5.07;;;;;;;25.78;55.36;98409.75;4132009;28;20300;-86
2022/08/19 09:40:12;;;;;;;5.57;5.05;;;;;;;25.84;54.80;98399.91;4115773;28;20229;-86
2022/08/19 09:42:14;;;;;;;8.98;4.72;;;;;;;25.93;54.52;98395.84;4115981;28;20226;-87
2022/08/19 09:44:30;;;;;;;4.57;4.28;;;;;;;26.13;53.20;98392.06;4114183;28;20293;-85
2022/08/19 09:46:31;;;;;;;4.93;4.60;;;;;;;26.36;53.85;98392.34;4107196;28;20685;-87
2022/08/19 09:48:33;;;;;;;6.30;5.85;;;;;;;26.18;53.52;98391.81;4124111;28;20644;-85
2022/08/19 09:50:38;;;;;;;5.28;4.80;;;;;;;26.34;53.83;98395.53;4112795;28;20312;-85